Astro Chloe — SVAL7 — position and weather

sailwx.info

Track history (hours):
 
Tides and Currents Weather Stations Pressure Air Temp Water Temp Dewpoint Dewpoint Depression Visibility Wind Speed Wind Dir Waves Ship Positions

Astro Chloe

Last reported at 2017-Dec-25 07:03 UTC. Time now 2018-Jan-18 17:22 UTC.
Position N 01°17' E 103°20'.
Warning: this ship's position is 24 days out of date.

Length 333 m; draft 10.5 m.

Type: Ship. MMSI: 240839000.

Date/timePositionNaut miles runAvg speedWind from/ knotsBaromVisibWave heightAir tempDewpointWater temp
2017-Dec-25 07:03N 01°17' E 103°20'113.6
2017-Dec-25 06:58N 01°17' E 103°21'713.8
2017-Dec-25 06:27N 01°13' E 103°28'613.9
2017-Dec-25 06:00N 01°12' E 103°33'713.2
2017-Dec-25 05:31N 01°11' E 103°40'612.2
2017-Dec-25 05:00N 01°09' E 103°46'713.4
2017-Dec-25 04:30N 01°12' E 103°52'3 6.5
2017-Dec-25 04:00N 01°15' E 103°54'0 0.4
2017-Dec-25 03:18N 01°15' E 103°53'0 0.0
2017-Dec-25 02:54N 01°15' E 103°53'0 0.0
2017-Dec-25 02:15N 01°15' E 103°53'0 0.0
2017-Dec-25 01:54N 01°15' E 103°53'0 0.0
2017-Dec-25 01:30N 01°15' E 103°53'0 0.0
2017-Dec-25 00:57N 01°15' E 103°53'0 0.0
2017-Dec-25 00:30N 01°15' E 103°53'0 0.0
2017-Dec-24 23:54N 01°15' E 103°53'0 0.0
2017-Dec-24 23:18N 01°15' E 103°53'0 0.0
2017-Dec-24 22:54N 01°15' E 103°53'0 0.0
2017-Dec-24 22:30N 01°15' E 103°53'0 0.0
2017-Dec-24 21:51N 01°15' E 103°53'0 0.0
2017-Dec-24 21:24N 01°15' E 103°53'0 0.0
2017-Dec-24 20:15N 01°15' E 103°53'0 0.0
2017-Dec-24 19:54N 01°15' E 103°53'0 0.0
2017-Dec-24 18:33N 01°15' E 103°53'0 0.0
2017-Dec-24 17:24N 01°15' E 103°53'0 0.0
2017-Dec-24 16:51N 01°15' E 103°53'0 0.0
2017-Dec-24 16:03N 01°15' E 103°53'0 0.0
2017-Dec-24 15:33N 01°15' E 103°53'0 0.0
2017-Dec-24 15:03N 01°15' E 103°53'0 0.2
2017-Dec-24 14:57N 01°15' E 103°53'0 0.0
2017-Dec-24 14:12N 01°15' E 103°53'0 0.2
2017-Dec-24 13:42N 01°15' E 103°54'0 0.3
2017-Dec-24 13:12N 01°15' E 103°54'0 0.1
2017-Dec-24 12:54N 01°15' E 103°54'0 0.2
2017-Dec-24 12:30N 01°15' E 103°54'0 0.0
2017-Dec-24 11:03N 01°15' E 103°54'0 0.0
2017-Dec-24 10:48N 01°15' E 103°54'0 0.0
2017-Dec-24 09:48N 01°15' E 103°54'0 0.0
2017-Dec-24 09:30N 01°15' E 103°54'0 0.1
2017-Dec-24 08:57N 01°15' E 103°54'0 0.0
2017-Dec-24 08:21N 01°15' E 103°54'0 0.1
2017-Dec-24 07:51N 01°15' E 103°54'0 0.2
2017-Dec-24 06:48N 01°15' E 103°54'0 0.0
2017-Dec-24 06:27N 01°15' E 103°54'0 0.0
2017-Dec-24 05:51N 01°15' E 103°54'0 0.1
2017-Dec-24 05:18N 01°15' E 103°54'0 0.0
2017-Dec-24 04:57N 01°15' E 103°54'0 0.0
2017-Dec-24 04:12N 01°15' E 103°54'0 0.2
2017-Dec-24 03:48N 01°15' E 103°53'0 0.0
2017-Dec-24 03:18N 01°15' E 103°53'0 0.0
2017-Dec-24 02:51N 01°15' E 103°53'0 0.0
2017-Dec-24 02:24N 01°15' E 103°53'0 0.1
2017-Dec-24 01:54N 01°15' E 103°53'0 0.2
2017-Dec-24 01:30N 01°15' E 103°54'3 5.1
2017-Dec-24 00:59N 01°15' E 103°56'3 6.7
2017-Dec-24 00:29N 01°16' E 103°59'3 5.1
2017-Dec-23 23:59N 01°16' E 104°02'4 8.5
2017-Dec-23 23:30N 01°16' E 104°06'  
2017-Dec-17 21:09N 21°59' E 121°13'2 9.8
2017-Dec-17 21:00N 22°00' E 121°14'4 8.2
2017-Dec-17 20:30N 22°04' E 121°16'6 9.1
2017-Dec-17 19:51N 22°09' E 121°19'4 9.1
2017-Dec-17 19:23N 22°13' E 121°21'4 8.9
2017-Dec-17 18:57N 22°16' E 121°24'39 9.6
2017-Dec-17 14:53N 22°48' E 121°47'410.0
2017-Dec-17 14:30N 22°52' E 121°49'7 9.7
2017-Dec-17 13:49N 22°57' E 121°53'4 9.6
2017-Dec-17 13:22N 23°01' E 121°55'18 9.5
2017-Dec-17 11:28N 23°16' E 122°06'5 9.8
2017-Dec-17 11:00N 23°20' E 122°09'2010.4
2017-Dec-17 09:08N 23°36' E 122°20'210.5
2017-Dec-17 08:56N 23°38' E 122°21'410.1
2017-Dec-17 08:31N 23°42' E 122°24'510.3
2017-Dec-17 08:00N 23°47' E 122°26'510.4
2017-Dec-17 07:30N 23°51' E 122°29'5 9.6
2017-Dec-17 07:00N 23°56' E 122°31'5 9.8
2017-Dec-17 06:30N 24°01' E 122°31'5 9.8
2017-Dec-17 06:01N 24°05' E 122°32'5 9.9
2017-Dec-17 05:31N 24°10' E 122°33'5 9.7
2017-Dec-17 05:00N 24°15' E 122°34'5 9.5
2017-Dec-17 04:30N 24°20' E 122°35'5 9.0
2017-Dec-17 04:01N 24°24' E 122°36'5 9.4
2017-Dec-17 03:30N 24°29' E 122°37'5 9.8
2017-Dec-17 03:00N 24°34' E 122°38'5 9.7
2017-Dec-17 02:30N 24°38' E 122°39'5 9.4
2017-Dec-17 02:00N 24°43' E 122°39'5 9.4
2017-Dec-17 01:30N 24°48' E 122°40'4 8.8
2017-Dec-17 01:00N 24°52' E 122°41'3 6.3
2017-Dec-17 00:30N 24°55' E 122°42'3 5.3
2017-Dec-17 00:01N 24°58' E 122°42'3 5.5
2017-Dec-16 23:30N 25°00' E 122°43'3 5.3
2017-Dec-16 23:00N 25°03' E 122°43'3 5.7
2017-Dec-16 22:30N 25°06' E 122°44'3 5.3
2017-Dec-16 22:01N 25°09' E 122°44'3 5.6
2017-Dec-16 21:31N 25°11' E 122°44'3 6.0
2017-Dec-16 21:00N 25°14' E 122°45'3 7.0
2017-Dec-16 20:30N 25°18' E 122°46'4 7.0
2017-Dec-16 20:00N 25°21' E 122°47'4 7.1
2017-Dec-16 19:30N 25°25' E 122°47'4 7.2
2017-Dec-16 19:00N 25°28' E 122°48'  
Track history (hours):
 
Tides and Currents Weather Stations Pressure Air Temp Water Temp Dewpoint Dewpoint Depression Visibility Wind Speed Wind Dir Waves Ship Positions

Astro Chloe

Last reported at 2017-Dec-25 07:03 UTC. Time now 2018-Jan-18 17:22 UTC.
Position N 01°17' E 103°20'.
Warning: this ship's position is 24 days out of date.

Length 333 m; draft 10.5 m.

Type: Ship. MMSI: 240839000.

Date/timePositionNaut miles runAvg speedWind from/ knotsBaromVisibWave heightAir tempDewpointWater temp
2017-Dec-25 07:03N 01°17' E 103°20'113.6
2017-Dec-25 06:58N 01°17' E 103°21'713.8
2017-Dec-25 06:27N 01°13' E 103°28'613.9
2017-Dec-25 06:00N 01°12' E 103°33'713.2
2017-Dec-25 05:31N 01°11' E 103°40'612.2
2017-Dec-25 05:00N 01°09' E 103°46'713.4
2017-Dec-25 04:30N 01°12' E 103°52'3 6.5
2017-Dec-25 04:00N 01°15' E 103°54'0 0.4
2017-Dec-25 03:18N 01°15' E 103°53'0 0.0
2017-Dec-25 02:54N 01°15' E 103°53'0 0.0
2017-Dec-25 02:15N 01°15' E 103°53'0 0.0
2017-Dec-25 01:54N 01°15' E 103°53'0 0.0
2017-Dec-25 01:30N 01°15' E 103°53'0 0.0
2017-Dec-25 00:57N 01°15' E 103°53'0 0.0
2017-Dec-25 00:30N 01°15' E 103°53'0 0.0
2017-Dec-24 23:54N 01°15' E 103°53'0 0.0
2017-Dec-24 23:18N 01°15' E 103°53'0 0.0
2017-Dec-24 22:54N 01°15' E 103°53'0 0.0
2017-Dec-24 22:30N 01°15' E 103°53'0 0.0
2017-Dec-24 21:51N 01°15' E 103°53'0 0.0
2017-Dec-24 21:24N 01°15' E 103°53'0 0.0
2017-Dec-24 20:15N 01°15' E 103°53'0 0.0
2017-Dec-24 19:54N 01°15' E 103°53'0 0.0
2017-Dec-24 18:33N 01°15' E 103°53'0 0.0
2017-Dec-24 17:24N 01°15' E 103°53'0 0.0
2017-Dec-24 16:51N 01°15' E 103°53'0 0.0
2017-Dec-24 16:03N 01°15' E 103°53'0 0.0
2017-Dec-24 15:33N 01°15' E 103°53'0 0.0
2017-Dec-24 15:03N 01°15' E 103°53'0 0.2
2017-Dec-24 14:57N 01°15' E 103°53'0 0.0
2017-Dec-24 14:12N 01°15' E 103°53'0 0.2
2017-Dec-24 13:42N 01°15' E 103°54'0 0.3
2017-Dec-24 13:12N 01°15' E 103°54'0 0.1
2017-Dec-24 12:54N 01°15' E 103°54'0 0.2
2017-Dec-24 12:30N 01°15' E 103°54'0 0.0
2017-Dec-24 11:03N 01°15' E 103°54'0 0.0
2017-Dec-24 10:48N 01°15' E 103°54'0 0.0
2017-Dec-24 09:48N 01°15' E 103°54'0 0.0
2017-Dec-24 09:30N 01°15' E 103°54'0 0.1
2017-Dec-24 08:57N 01°15' E 103°54'0 0.0
2017-Dec-24 08:21N 01°15' E 103°54'0 0.1
2017-Dec-24 07:51N 01°15' E 103°54'0 0.2
2017-Dec-24 06:48N 01°15' E 103°54'0 0.0
2017-Dec-24 06:27N 01°15' E 103°54'0 0.0
2017-Dec-24 05:51N 01°15' E 103°54'0 0.1
2017-Dec-24 05:18N 01°15' E 103°54'0 0.0
2017-Dec-24 04:57N 01°15' E 103°54'0 0.0
2017-Dec-24 04:12N 01°15' E 103°54'0 0.2
2017-Dec-24 03:48N 01°15' E 103°53'0 0.0
2017-Dec-24 03:18N 01°15' E 103°53'0 0.0
2017-Dec-24 02:51N 01°15' E 103°53'0 0.0
2017-Dec-24 02:24N 01°15' E 103°53'0 0.1
2017-Dec-24 01:54N 01°15' E 103°53'0 0.2
2017-Dec-24 01:30N 01°15' E 103°54'3 5.1
2017-Dec-24 00:59N 01°15' E 103°56'3 6.7
2017-Dec-24 00:29N 01°16' E 103°59'3 5.1
2017-Dec-23 23:59N 01°16' E 104°02'4 8.5
2017-Dec-23 23:30N 01°16' E 104°06'  
2017-Dec-17 21:09N 21°59' E 121°13'2 9.8
2017-Dec-17 21:00N 22°00' E 121°14'4 8.2
2017-Dec-17 20:30N 22°04' E 121°16'6 9.1
2017-Dec-17 19:51N 22°09' E 121°19'4 9.1
2017-Dec-17 19:23N 22°13' E 121°21'4 8.9
2017-Dec-17 18:57N 22°16' E 121°24'39 9.6
2017-Dec-17 14:53N 22°48' E 121°47'410.0
2017-Dec-17 14:30N 22°52' E 121°49'7 9.7
2017-Dec-17 13:49N 22°57' E 121°53'4 9.6
2017-Dec-17 13:22N 23°01' E 121°55'18 9.5
2017-Dec-17 11:28N 23°16' E 122°06'5 9.8
2017-Dec-17 11:00N 23°20' E 122°09'2010.4
2017-Dec-17 09:08N 23°36' E 122°20'210.5
2017-Dec-17 08:56N 23°38' E 122°21'410.1
2017-Dec-17 08:31N 23°42' E 122°24'510.3
2017-Dec-17 08:00N 23°47' E 122°26'510.4
2017-Dec-17 07:30N 23°51' E 122°29'5 9.6
2017-Dec-17 07:00N 23°56' E 122°31'5 9.8
2017-Dec-17 06:30N 24°01' E 122°31'5 9.8
2017-Dec-17 06:01N 24°05' E 122°32'5 9.9
2017-Dec-17 05:31N 24°10' E 122°33'5 9.7
2017-Dec-17 05:00N 24°15' E 122°34'5 9.5
2017-Dec-17 04:30N 24°20' E 122°35'5 9.0
2017-Dec-17 04:01N 24°24' E 122°36'5 9.4
2017-Dec-17 03:30N 24°29' E 122°37'5 9.8
2017-Dec-17 03:00N 24°34' E 122°38'5 9.7
2017-Dec-17 02:30N 24°38' E 122°39'5 9.4
2017-Dec-17 02:00N 24°43' E 122°39'5 9.4
2017-Dec-17 01:30N 24°48' E 122°40'4 8.8
2017-Dec-17 01:00N 24°52' E 122°41'3 6.3
2017-Dec-17 00:30N 24°55' E 122°42'3 5.3
2017-Dec-17 00:01N 24°58' E 122°42'3 5.5
2017-Dec-16 23:30N 25°00' E 122°43'3 5.3
2017-Dec-16 23:00N 25°03' E 122°43'3 5.7
2017-Dec-16 22:30N 25°06' E 122°44'3 5.3
2017-Dec-16 22:01N 25°09' E 122°44'3 5.6
2017-Dec-16 21:31N 25°11' E 122°44'3 6.0
2017-Dec-16 21:00N 25°14' E 122°45'3 7.0
2017-Dec-16 20:30N 25°18' E 122°46'4 7.0
2017-Dec-16 20:00N 25°21' E 122°47'4 7.1
2017-Dec-16 19:30N 25°25' E 122°47'4 7.2
2017-Dec-16 19:00N 25°28' E 122°48'  

Dump ship's entire track history